Terminal Aerodrome Forecast
Issued by NWS

Home | Current Version | Previous Version | Text Only | Print | Product List | Glossary On
Versions: 1 2 3 4 5 6 7 8 9 10 11 12 13 14 15 16
882
FTUS43 KGRR 091733
TAFAZO
TAF
KAZO 091733Z 0918/1018 31012G22KT P6SM -SHSN OVC021
     FM092000 31012G22KT 4SM -SHSN OVC025
      TEMPO 0920/0924 2SM -SHSN OVC015
     FM100000 31012KT 4SM -SHSN OVC025
     FM101500 31012G22KT 4SM -SHSN OVC025=

USA.gov is the U.S. government's official web portal to all federal, state and local government web resources and services.